メインページ
METAR-TAF:

METAR-TAF

空港 :

サー・シウサガル・ラングーラム国際空港

モーリシャス, モーリシャス

緯度: 20-26S, 経度: 057-40E, 海抜: 55m

現時点の気象観測

当レポートは28分前の09:00(UTC)に作成
東/南東の風 16kt
気温 25°C
湿度 57%
気圧 1023 hPa
視程10km以上
高度1600ftの千切れ雲あり

METAR: FIMP 190900Z 12016KT 9999 BKN016 25/16 Q1023

時間: 13:28 (09:28 UTC)

予報

当レポートは3時間58分前の05:30(UTC)に作成
予報は19日の 06時(UTC)から 20日の 12時(UTC)まで有効
南東の風 12kt、最大25ktの突風を伴う
視程10km以上
高度1700ftの雲は散在している
高度5000ftの千切れ雲あり
確率 30% :
19日の 12時(UTC)から 20日の 06時(UTC)まで一時的に
視程: 7000m
高度1000ftの雲はほとんどない
高度1600ftの千切れ雲あり
高度5000ftの千切れ雲あり
弱いにわか雨

TAF: FIMP 190530Z 1906/2012 13012G25KT 9999 SCT017 BKN050 PROB30 TEMPO 1912/2006 7000 -SHRA FEW010 BKN016 BKN050

4,000以上の空港の気象観測と天気予報(METAR報とTAF報)

利用可能な観測所は地図上に黄色い丸と赤い丸で示す。

丸の上にカーソルを重ねると観測所名を参照できる。

次にクリックすると気象観測と天気予報を参照できる。

マップの切り替え:黒色「×」印の緑ボタンをクリックして拡大、「-」印の緑ボタンをクリックして縮小、緑色の三角印をクリックして隣りの地図に切り替え


METAR-TAF: